Time;durP1;ratioP1;P1;durP2;ratioP2;P2;SDS_P1;SDS_P2;PMS_P1;PMS_P2;Temp;Humidity;BMP_temperature;BMP_pressure;BME280_temperature;BME280_humidity;BME280_pressure;Samples;Min_cycle;Max_cycle;Signal;HPM_P1;HPM_P2
2022/12/20 00:01:32;;;;;;;10.23;6.77;;;0.10;99.90;;;;;;5051988;28;21029;-50
2022/12/20 00:04:02;;;;;;;6.73;4.90;;;0.00;99.90;;;;;;5051589;28;20545;-52
2022/12/20 00:06:29;;;;;;;7.77;6.30;;;0.10;99.90;;;;;;5052366;28;20442;-51
2022/12/20 00:08:58;;;;;;;36.37;5.87;;;0.20;99.90;;;;;;5052847;28;20446;-51
2022/12/20 00:11:27;;;;;;;20.67;5.83;;;0.20;99.90;;;;;;5053172;28;20472;-51
2022/12/20 00:13:54;;;;;;;10.10;4.40;;;0.10;99.90;;;;;;5053534;28;20533;-51
2022/12/20 00:16:22;;;;;;;8.40;4.90;;;0.10;99.90;;;;;;5053113;28;20444;-51
2022/12/20 00:18:53;;;;;;;6.67;4.50;;;0.20;99.90;;;;;;5053312;28;20535;-51
2022/12/20 00:21:20;;;;;;;16.67;5.30;;;0.20;99.90;;;;;;5053634;28;20450;-51
2022/12/20 00:23:47;;;;;;;7.60;4.30;;;0.10;99.90;;;;;;5053160;28;20485;-52
2022/12/20 00:26:15;;;;;;;33.30;6.37;;;0.20;99.90;;;;;;5053371;28;20537;-51
2022/12/20 00:28:45;;;;;;;31.93;11.90;;;0.20;99.90;;;;;;5052828;28;20533;-51
2022/12/20 00:31:14;;;;;;;23.77;7.50;;;0.20;99.90;;;;;;5053225;28;20569;-51
2022/12/20 00:33:42;;;;;;;36.07;6.40;;;0.00;99.90;;;;;;5052163;28;20545;-51
2022/12/20 00:36:09;;;;;;;7.03;5.00;;;0.00;99.90;;;;;;5050910;28;20442;-51
2022/12/20 00:38:36;;;;;;;7.43;5.37;;;0.10;99.90;;;;;;5051338;28;20552;-51
2022/12/20 00:41:05;;;;;;;9.13;5.67;;;0.10;99.90;;;;;;5051024;28;21013;-51
2022/12/20 00:43:33;;;;;;;5.27;4.20;;;0.10;99.90;;;;;;5051114;28;20812;-51
2022/12/20 00:46:02;;;;;;;5.33;4.00;;;0.10;99.90;;;;;;5051293;28;20536;-51
2022/12/20 00:48:30;;;;;;;6.37;4.90;;;0.10;99.90;;;;;;5051157;28;20469;-51
2022/12/20 00:50:59;;;;;;;11.87;8.70;;;0.20;99.90;;;;;;5052366;28;20474;-51
2022/12/20 00:53:26;;;;;;;59.73;18.37;;;0.20;99.90;;;;;;5052252;28;20901;-51
2022/12/20 00:55:53;;;;;;;17.83;9.23;;;-0.10;99.90;;;;;;5052668;28;20442;-52
2022/12/20 00:58:20;;;;;;;35.87;12.43;;;-0.10;99.90;;;;;;5052411;28;21038;-51
2022/12/20 01:00:47;;;;;;;31.97;10.73;;;0.00;99.90;;;;;;5052248;28;20905;-51
2022/12/20 01:03:15;;;;;;;14.43;8.30;;;-0.20;99.90;;;;;;5053059;28;20442;-51
2022/12/20 01:05:50;;;;;;;24.13;9.03;;;-0.10;99.90;;;;;;5052228;28;20529;-51
2022/12/20 01:08:17;;;;;;;16.33;11.07;;;-0.10;99.90;;;;;;5053065;28;20544;-50
2022/12/20 01:10:44;;;;;;;56.90;14.33;;;0.00;99.90;;;;;;5052480;28;20503;-51
2022/12/20 01:13:11;;;;;;;41.47;8.83;;;-0.20;99.90;;;;;;5052167;28;20509;-51
2022/12/20 01:15:38;;;;;;;8.40;6.30;;;-0.20;99.90;;;;;;5052089;28;20438;-51
2022/12/20 01:18:05;;;;;;;6.57;5.70;;;-0.10;99.90;;;;;;5052224;28;20546;-51
2022/12/20 01:20:33;;;;;;;5.67;4.80;;;0.00;99.90;;;;;;5052303;28;20449;-51
2022/12/20 01:23:00;;;;;;;11.87;8.20;;;0.10;99.90;;;;;;5051783;28;20442;-51
2022/12/20 01:25:26;;;;;;;11.73;10.53;;;0.10;99.90;;;;;;5052560;28;20528;-52
2022/12/20 01:27:53;;;;;;;16.70;10.37;;;0.10;99.90;;;;;;5051807;28;20544;-51
2022/12/20 01:30:20;;;;;;;21.70;12.40;;;0.00;99.90;;;;;;5051668;28;20537;-51
2022/12/20 01:32:47;;;;;;;29.93;13.43;;;0.00;99.90;;;;;;5051390;28;20527;-51
2022/12/20 01:35:14;;;;;;;38.10;10.77;;;0.00;99.90;;;;;;5051841;28;20446;-51
2022/12/20 01:37:42;;;;;;;8.90;8.10;;;0.00;99.90;;;;;;5051781;28;20541;-50
2022/12/20 01:40:10;;;;;;;11.70;8.23;;;0.10;99.90;;;;;;5052069;28;20545;-50
2022/12/20 01:42:37;;;;;;;24.17;9.00;;;0.10;99.90;;;;;;5051955;28;20812;-51
2022/12/20 01:45:11;;;;;;;8.77;7.87;;;-0.20;99.90;;;;;;5050530;28;20564;-51
2022/12/20 01:47:39;;;;;;;8.30;7.17;;;-0.10;99.90;;;;;;5051267;28;20474;-51
2022/12/20 01:50:08;;;;;;;9.87;6.90;;;0.00;99.90;;;;;;5051755;28;20540;-52
2022/12/20 01:52:39;;;;;;;11.40;8.20;;;0.00;99.90;;;;;;5051775;28;20481;-51
2022/12/20 01:55:12;;;;;;;36.50;14.57;;;0.00;99.90;;;;;;5051680;28;20525;-51
2022/12/20 01:57:44;;;;;;;21.83;10.37;;;-0.10;99.90;;;;;;5051436;28;20478;-52
2022/12/20 02:00:13;;;;;;;11.03;7.60;;;-0.20;99.90;;;;;;5051276;28;20537;-51
2022/12/20 02:02:40;;;;;;;18.13;8.70;;;0.00;99.90;;;;;;5051850;28;20441;-50
2022/12/20 02:05:08;;;;;;;17.80;9.30;;;-0.10;99.90;;;;;;5051561;28;20533;-52
2022/12/20 02:07:37;;;;;;;103.60;20.13;;;-0.10;99.90;;;;;;5051367;28;20553;-51
2022/12/20 02:10:06;;;;;;;31.57;11.50;;;-0.20;99.90;;;;;;5051211;28;20446;-51
2022/12/20 02:12:40;;;;;;;30.23;12.60;;;-0.20;99.90;;;;;;5051253;28;20553;-50
2022/12/20 02:15:28;;;;;;;98.00;17.53;;;-0.10;99.90;;;;;;5051077;28;21009;-52
2022/12/20 02:18:07;;;;;;;23.63;8.57;;;-0.20;99.90;;;;;;5032593;28;20469;-51
2022/12/20 02:21:06;;;;;;;29.20;9.83;;;-0.10;99.90;;;;;;5051163;28;20456;-53
2022/12/20 02:24:12;;;;;;;12.67;7.97;;;0.00;99.90;;;;;;5047731;28;20464;-51
2022/12/20 02:27:14;;;;;;;32.00;9.70;;;0.10;99.90;;;;;;5051264;28;21218;-51
2022/12/20 02:29:56;;;;;;;11.10;8.83;;;0.00;99.90;;;;;;5034172;28;20954;-51
2022/12/20 02:32:28;;;;;;;15.97;9.10;;;0.00;99.90;;;;;;5030886;28;20478;-51
2022/12/20 02:34:55;;;;;;;15.83;8.50;;;0.00;99.90;;;;;;5046714;28;20541;-52
2022/12/20 02:37:22;;;;;;;17.33;8.40;;;0.10;99.90;;;;;;5108383;22;20473;-50
2022/12/20 02:39:49;;;;;;;9.90;7.50;;;0.10;99.90;;;;;;5050753;28;20524;-50
2022/12/20 02:42:19;;;;;;;12.30;8.07;;;0.10;99.90;;;;;;5051206;28;20444;-50
2022/12/20 02:47:42;;;;;;;68.73;10.63;;;0.20;99.90;;;;;;5031886;28;20817;-51
2022/12/20 02:50:11;;;;;;;10.47;6.90;;;0.20;99.90;;;;;;5042846;28;20532;-50
2022/12/20 02:52:39;;;;;;;10.20;6.70;;;0.20;99.90;;;;;;5050974;28;20488;-50
2022/12/20 02:55:07;;;;;;;25.17;8.47;;;0.30;99.90;;;;;;5050901;28;20449;-50
2022/12/20 02:57:43;;;;;;;14.40;9.40;;;0.20;99.90;;;;;;5054243;28;20812;-50
2022/12/20 03:00:12;;;;;;;55.17;14.00;;;0.20;99.90;;;;;;5054811;28;20441;-50
2022/12/20 03:05:27;;;;;;;30.43;8.97;;;0.00;99.90;;;;;;5054642;28;20440;-50
2022/12/20 03:07:55;;;;;;;5.90;4.70;;;0.00;99.90;;;;;;5054790;28;20461;-50
2022/12/20 03:10:22;;;;;;;10.80;5.30;;;0.20;99.90;;;;;;5054503;28;20456;-51
2022/12/20 03:12:49;;;;;;;32.77;8.50;;;0.20;99.90;;;;;;5054284;28;21028;-52
2022/12/20 03:15:16;;;;;;;48.70;10.97;;;0.20;99.90;;;;;;5054893;28;20528;-50
2022/12/20 03:17:44;;;;;;;57.50;11.80;;;0.00;99.90;;;;;;5054368;28;20545;-50
2022/12/20 03:20:11;;;;;;;116.57;15.47;;;-0.10;99.90;;;;;;5054505;28;20706;-50
2022/12/20 03:22:39;;;;;;;72.27;15.70;;;-0.20;99.90;;;;;;5054599;28;20437;-50
2022/12/20 03:25:06;;;;;;;47.17;11.10;;;-0.30;99.90;;;;;;5053191;28;20521;-50
2022/12/20 03:27:34;;;;;;;18.70;6.80;;;-0.20;99.90;;;;;;5054210;28;21042;-50
2022/12/20 03:30:01;;;;;;;11.53;6.20;;;-0.10;99.90;;;;;;5053760;28;20541;-50
2022/12/20 03:32:28;;;;;;;17.60;6.73;;;0.00;99.90;;;;;;5054156;28;20743;-48
2022/12/20 03:34:56;;;;;;;16.97;8.17;;;0.10;99.90;;;;;;5053686;28;20980;-52
2022/12/20 03:37:23;;;;;;;16.00;9.20;;;0.10;99.90;;;;;;5052201;28;20507;-52
2022/12/20 03:39:50;;;;;;;18.03;8.00;;;0.10;99.90;;;;;;5052356;28;20806;-50
2022/12/20 03:42:17;;;;;;;11.70;7.53;;;0.10;99.90;;;;;;5052415;28;21031;-50
2022/12/20 03:44:44;;;;;;;18.70;8.30;;;0.10;99.90;;;;;;5052179;28;20448;-50
2022/12/20 03:47:10;;;;;;;18.40;8.00;;;0.10;99.90;;;;;;5052455;28;21077;-50
2022/12/20 03:49:37;;;;;;;10.77;6.70;;;0.10;99.90;;;;;;5052016;28;20450;-50
2022/12/20 03:52:06;;;;;;;18.03;8.70;;;0.10;99.90;;;;;;5054086;28;20473;-50
2022/12/20 03:54:33;;;;;;;22.53;8.67;;;0.10;99.90;;;;;;5054012;28;20524;-50
2022/12/20 03:56:59;;;;;;;64.27;11.90;;;0.10;99.90;;;;;;5054046;28;20481;-50
2022/12/20 03:59:26;;;;;;;65.17;12.47;;;0.10;99.90;;;;;;5052328;28;20532;-50
2022/12/20 04:01:53;;;;;;;24.07;10.27;;;-0.10;99.90;;;;;;5052889;28;20951;-50
2022/12/20 04:04:20;;;;;;;16.63;9.10;;;0.00;99.90;;;;;;5052531;28;20456;-50
2022/12/20 04:06:47;;;;;;;18.23;8.30;;;0.00;99.90;;;;;;5052263;28;20935;-50
2022/12/20 04:09:16;;;;;;;13.77;7.43;;;0.10;99.90;;;;;;5050665;28;20461;-50
2022/12/20 04:11:43;;;;;;;12.23;7.60;;;0.20;99.90;;;;;;5052301;28;20529;-50
2022/12/20 04:14:09;;;;;;;11.10;7.80;;;0.20;99.90;;;;;;5051305;28;20476;-50
2022/12/20 04:16:36;;;;;;;33.03;7.43;;;0.20;99.90;;;;;;5052057;28;20525;-50
2022/12/20 04:19:03;;;;;;;6.70;4.70;;;0.20;99.90;;;;;;5052035;28;21066;-51
2022/12/20 04:21:34;;;;;;;7.73;4.10;;;0.20;99.90;;;;;;5052460;28;20964;-50
2022/12/20 04:24:03;;;;;;;8.43;4.23;;;0.20;99.90;;;;;;5053295;28;20444;-50
2022/12/20 04:26:31;;;;;;;5.40;4.60;;;0.30;99.90;;;;;;5053339;28;20551;-51
2022/12/20 04:28:58;;;;;;;14.57;5.60;;;0.30;99.90;;;;;;5053002;28;20564;-52
2022/12/20 04:31:25;;;;;;;13.87;8.40;;;0.30;99.90;;;;;;5053000;28;20449;-50
2022/12/20 04:33:52;;;;;;;11.40;10.20;;;0.30;99.90;;;;;;5052569;28;20470;-50
2022/12/20 04:36:19;;;;;;;14.20;10.70;;;0.30;99.90;;;;;;5052767;28;20520;-50
2022/12/20 04:38:46;;;;;;;12.93;9.77;;;0.30;99.90;;;;;;5052591;28;20556;-50
2022/12/20 04:41:20;;;;;;;9.17;7.60;;;0.30;99.90;;;;;;5052689;28;20456;-51
2022/12/20 04:43:49;;;;;;;13.50;7.67;;;0.30;99.90;;;;;;5052963;28;20902;-50
2022/12/20 04:46:16;;;;;;;7.73;6.53;;;0.30;99.90;;;;;;5053232;28;20452;-50
2022/12/20 04:48:43;;;;;;;13.63;7.50;;;0.40;99.90;;;;;;5052546;28;20548;-51
2022/12/20 04:51:10;;;;;;;12.13;6.63;;;0.40;99.90;;;;;;5052527;28;20442;-50
2022/12/20 04:53:48;;;;;;;11.97;6.10;;;0.40;99.90;;;;;;5052297;28;20466;-50
2022/12/20 04:56:17;;;;;;;12.60;5.37;;;0.40;99.90;;;;;;5052774;28;20473;-50
2022/12/20 04:58:44;;;;;;;79.17;17.07;;;0.40;99.90;;;;;;5052821;28;20502;-51
2022/12/20 05:01:13;;;;;;;38.33;9.30;;;0.10;99.90;;;;;;5052754;28;20529;-50
2022/12/20 05:03:40;;;;;;;50.00;8.90;;;0.10;99.90;;;;;;5051822;28;20516;-48
2022/12/20 05:06:08;;;;;;;11.63;6.23;;;0.10;99.90;;;;;;5038760;28;20477;-52
2022/12/20 05:08:36;;;;;;;8.97;5.23;;;0.20;99.90;;;;;;5050523;28;20461;-50
2022/12/20 05:11:04;;;;;;;7.43;4.90;;;0.30;99.90;;;;;;5051130;28;20438;-53
2022/12/20 05:13:31;;;;;;;7.93;2.90;;;0.40;99.90;;;;;;5050116;28;20477;-53
2022/12/20 05:15:58;;;;;;;33.30;4.53;;;0.30;99.90;;;;;;5051107;28;20529;-50
2022/12/20 05:18:27;;;;;;;32.17;4.33;;;0.20;99.90;;;;;;5050959;28;20836;-51
2022/12/20 05:26:29;;;;;;;49.07;6.80;;;0.10;99.90;;;;;;5052011;28;20491;-49
2022/12/20 05:28:55;;;;;;;71.57;9.77;;;-0.10;99.90;;;;;;5052701;28;20556;-52
2022/12/20 05:31:22;;;;;;;109.40;13.03;;;-0.10;99.90;;;;;;5051205;28;20450;-50
2022/12/20 05:33:51;;;;;;;120.00;11.67;;;-0.10;99.90;;;;;;5051423;28;20978;-50
2022/12/20 05:36:18;;;;;;;23.67;5.60;;;-0.10;99.90;;;;;;5062545;28;20906;-50
2022/12/20 05:38:44;;;;;;;89.00;15.33;;;0.00;99.90;;;;;;5051701;28;20478;-51
2022/12/20 05:41:11;;;;;;;109.20;19.90;;;0.00;99.90;;;;;;5050672;28;20553;-50
2022/12/20 05:43:39;;;;;;;71.20;19.80;;;-0.10;99.90;;;;;;5054389;28;20470;-50
2022/12/20 05:46:06;;;;;;;145.13;18.00;;;-0.20;99.90;;;;;;5051539;28;21008;-50
2022/12/20 05:48:33;;;;;;;72.40;14.70;;;-0.20;99.90;;;;;;5052174;28;20461;-50
2022/12/20 05:51:01;;;;;;;38.10;8.93;;;-0.20;99.90;;;;;;5051554;28;20452;-50
2022/12/20 05:53:29;;;;;;;43.67;9.30;;;-0.20;99.90;;;;;;5051386;28;20504;-50
2022/12/20 05:55:56;;;;;;;35.63;9.33;;;-0.20;99.90;;;;;;5053246;28;20531;-53
2022/12/20 05:58:23;;;;;;;42.47;11.10;;;-0.20;99.90;;;;;;5059054;28;20462;-50
2022/12/20 06:00:50;;;;;;;26.83;8.17;;;-0.20;99.90;;;;;;5056576;28;20441;-50
2022/12/20 06:03:17;;;;;;;28.23;7.20;;;-0.10;99.90;;;;;;5071249;28;20930;-51
2022/12/20 06:05:45;;;;;;;24.37;7.37;;;0.00;99.90;;;;;;5071277;28;20865;-53
2022/12/20 06:08:14;;;;;;;21.93;6.13;;;0.00;99.90;;;;;;5051568;28;20545;-53
2022/12/20 06:10:41;;;;;;;21.50;6.97;;;0.00;99.90;;;;;;5051117;28;20521;-50
2022/12/20 06:13:09;;;;;;;25.47;7.67;;;0.00;99.90;;;;;;5069821;28;20476;-50
2022/12/20 06:15:37;;;;;;;11.13;7.00;;;0.00;99.90;;;;;;5065623;28;20533;-50
2022/12/20 06:18:04;;;;;;;9.20;6.00;;;0.10;99.90;;;;;;5051236;28;21001;-50
2022/12/20 06:20:32;;;;;;;10.57;7.43;;;0.10;99.90;;;;;;5051562;28;20453;-50
2022/12/20 06:22:59;;;;;;;14.33;7.97;;;0.20;99.90;;;;;;5051189;28;20444;-51
2022/12/20 06:25:28;;;;;;;10.03;8.60;;;0.10;99.90;;;;;;5049461;28;20529;-49
2022/12/20 06:27:55;;;;;;;32.57;11.20;;;0.10;99.90;;;;;;5050743;28;20474;-51
2022/12/20 06:30:22;;;;;;;35.50;8.13;;;0.10;99.90;;;;;;5050673;28;20632;-51
2022/12/20 06:32:49;;;;;;;36.10;8.23;;;0.00;99.90;;;;;;5050562;28;20560;-50
2022/12/20 06:35:16;;;;;;;23.23;7.33;;;0.10;99.90;;;;;;5051507;28;20528;-51
2022/12/20 06:37:43;;;;;;;15.83;6.70;;;0.00;99.90;;;;;;5051282;28;20552;-50
2022/12/20 06:40:12;;;;;;;9.63;7.00;;;0.10;99.90;;;;;;5050978;28;20526;-51
2022/12/20 06:42:41;;;;;;;6.23;5.73;;;0.10;99.90;;;;;;5051145;28;20521;-51
2022/12/20 06:45:09;;;;;;;41.40;12.27;;;0.10;99.90;;;;;;5051200;28;20442;-50
2022/12/20 06:47:36;;;;;;;173.10;27.20;;;-0.10;99.90;;;;;;5051381;28;20461;-50
2022/12/20 06:50:04;;;;;;;232.50;34.27;;;-0.10;99.90;;;;;;5051115;28;20438;-51
2022/12/20 06:52:31;;;;;;;117.33;20.00;;;-0.10;99.90;;;;;;5051048;28;20452;-52
2022/12/20 06:54:58;;;;;;;67.13;19.20;;;-0.10;99.90;;;;;;5050454;28;20570;-52
2022/12/20 06:57:25;;;;;;;148.67;20.70;;;-0.10;99.90;;;;;;5050990;28;20978;-50
2022/12/20 06:59:53;;;;;;;102.37;21.90;;;-0.10;99.90;;;;;;5051313;28;20450;-51
2022/12/20 07:02:20;;;;;;;64.90;14.77;;;-0.10;99.90;;;;;;5050973;28;20540;-52
2022/12/20 07:04:47;;;;;;;81.53;16.30;;;-0.10;99.90;;;;;;5050530;28;20524;-50
2022/12/20 07:07:14;;;;;;;73.23;14.20;;;0.00;99.90;;;;;;5050700;28;20470;-50
2022/12/20 07:09:41;;;;;;;20.13;8.83;;;0.00;99.90;;;;;;5050656;28;20516;-50
2022/12/20 07:12:09;;;;;;;16.00;8.20;;;0.00;99.90;;;;;;5051017;28;20536;-49
2022/12/20 07:14:35;;;;;;;19.47;9.10;;;0.20;99.90;;;;;;5050469;28;20568;-50
2022/12/20 07:17:04;;;;;;;14.60;8.10;;;0.20;99.90;;;;;;5050674;28;20910;-50
2022/12/20 07:19:31;;;;;;;50.57;14.73;;;0.30;99.90;;;;;;5050793;28;20529;-50
2022/12/20 07:21:58;;;;;;;55.80;13.73;;;0.20;99.90;;;;;;5050539;28;20445;-50
2022/12/20 07:24:25;;;;;;;112.23;15.67;;;0.10;99.90;;;;;;5050656;28;20434;-50
2022/12/20 07:26:52;;;;;;;106.77;16.30;;;0.00;99.90;;;;;;5050850;28;20446;-51
2022/12/20 07:29:19;;;;;;;51.17;10.87;;;0.00;99.90;;;;;;5050754;28;20533;-50
2022/12/20 07:31:45;;;;;;;37.83;10.50;;;0.00;99.90;;;;;;5051303;28;20492;-51
2022/12/20 07:34:14;;;;;;;66.63;11.70;;;0.10;99.90;;;;;;5050013;28;20477;-51
2022/12/20 07:36:41;;;;;;;12.40;7.40;;;0.10;99.90;;;;;;5050670;28;21026;-51
2022/12/20 07:39:08;;;;;;;18.10;9.60;;;0.20;99.90;;;;;;5050642;28;20556;-52
2022/12/20 07:41:35;;;;;;;14.43;8.60;;;0.30;99.90;;;;;;5050344;28;20446;-50
2022/12/20 07:44:02;;;;;;;12.20;8.40;;;0.30;99.90;;;;;;5052712;28;20448;-50
2022/12/20 07:46:29;;;;;;;13.17;8.30;;;0.30;99.90;;;;;;5054375;28;20446;-50
2022/12/20 07:48:56;;;;;;;20.20;9.83;;;0.30;99.90;;;;;;5054310;28;20500;-50
2022/12/20 07:51:28;;;;;;;18.83;10.57;;;0.40;99.90;;;;;;5054299;28;20446;-53
2022/12/20 07:54:01;;;;;;;15.90;10.20;;;0.40;99.90;;;;;;5054031;28;20477;-50
2022/12/20 07:56:30;;;;;;;22.23;13.20;;;0.50;99.90;;;;;;5054208;28;20488;-50
2022/12/20 07:59:00;;;;;;;37.00;20.43;;;0.50;99.90;;;;;;5053937;28;21036;-50
2022/12/20 08:01:29;;;;;;;37.97;18.93;;;0.40;99.90;;;;;;5054310;28;20530;-53
2022/12/20 08:03:59;;;;;;;23.03;13.80;;;0.40;99.90;;;;;;5053863;28;20442;-50
2022/12/20 08:06:28;;;;;;;14.93;11.10;;;0.50;99.90;;;;;;5054037;28;20445;-51
2022/12/20 08:08:58;;;;;;;32.27;11.63;;;0.60;99.90;;;;;;5053854;28;20512;-50
2022/12/20 08:11:27;;;;;;;24.37;10.37;;;0.50;99.90;;;;;;5053825;28;20477;-51
2022/12/20 08:13:54;;;;;;;15.57;10.87;;;0.50;99.90;;;;;;5053654;28;20487;-52
2022/12/20 08:16:21;;;;;;;23.17;11.07;;;0.50;99.90;;;;;;5053732;28;20480;-50
2022/12/20 08:18:48;;;;;;;18.30;8.87;;;0.50;99.90;;;;;;5053669;28;20468;-49
2022/12/20 08:21:15;;;;;;;31.47;10.30;;;0.50;99.90;;;;;;5053448;28;20952;-50
2022/12/20 08:23:43;;;;;;;47.70;13.60;;;0.40;99.90;;;;;;5053420;28;20538;-50
2022/12/20 08:26:10;;;;;;;64.90;13.50;;;0.30;99.90;;;;;;5052053;28;20474;-50
2022/12/20 08:28:37;;;;;;;46.23;12.00;;;0.00;99.90;;;;;;5051870;28;20549;-50
2022/12/20 08:31:06;;;;;;;45.03;12.00;;;-0.10;99.90;;;;;;5052446;28;20540;-49
2022/12/20 08:33:34;;;;;;;16.00;8.43;;;0.00;99.90;;;;;;5050933;28;20482;-50
2022/12/20 08:36:03;;;;;;;17.47;8.40;;;0.20;99.90;;;;;;5051861;28;20446;-50
2022/12/20 08:38:30;;;;;;;31.60;11.03;;;0.30;99.90;;;;;;5075153;23;20501;-51
2022/12/20 08:41:04;;;;;;;33.33;12.33;;;0.30;99.90;;;;;;5051377;28;20438;-51
2022/12/20 08:43:31;;;;;;;45.43;14.53;;;0.10;99.90;;;;;;5053039;28;20520;-51
2022/12/20 08:45:58;;;;;;;58.50;13.53;;;-0.20;99.90;;;;;;5053240;28;20869;-51
2022/12/20 08:48:25;;;;;;;45.63;14.17;;;-0.10;99.90;;;;;;5052855;28;20494;-52
2022/12/20 08:50:56;;;;;;;45.53;14.00;;;0.10;99.90;;;;;;5052853;28;20477;-52
2022/12/20 08:53:23;;;;;;;38.53;17.00;;;0.10;99.90;;;;;;5052704;28;20446;-52
2022/12/20 08:55:50;;;;;;;51.83;14.43;;;0.10;99.90;;;;;;5052771;28;20445;-51
2022/12/20 08:58:19;;;;;;;33.73;10.73;;;0.30;99.90;;;;;;5052853;28;20551;-52
2022/12/20 09:00:46;;;;;;;29.47;12.60;;;0.40;99.90;;;;;;5052757;28;20441;-54
2022/12/20 09:03:14;;;;;;;67.13;16.37;;;0.30;99.90;;;;;;5052706;28;20434;-55
2022/12/20 09:05:47;;;;;;;43.67;14.67;;;0.30;99.90;;;;;;5051615;28;20474;-53
2022/12/20 09:08:15;;;;;;;40.33;13.73;;;0.40;99.90;;;;;;5052678;28;20554;-53
2022/12/20 09:10:42;;;;;;;35.37;14.77;;;0.30;99.90;;;;;;5052166;28;20499;-53
2022/12/20 09:13:09;;;;;;;87.33;16.87;;;0.40;99.90;;;;;;5051650;28;20528;-55
2022/12/20 09:15:38;;;;;;;19.50;13.37;;;0.50;99.90;;;;;;5051365;28;20572;-53
2022/12/20 09:18:05;;;;;;;25.63;13.23;;;0.50;99.90;;;;;;5052008;28;20523;-53
2022/12/20 09:20:32;;;;;;;23.70;13.30;;;0.70;99.90;;;;;;5052375;28;20445;-54
2022/12/20 09:22:59;;;;;;;24.50;11.23;;;0.70;99.90;;;;;;5052136;28;20446;-53
2022/12/20 09:25:27;;;;;;;47.17;13.90;;;0.60;99.90;;;;;;5052463;28;20741;-53
2022/12/20 09:27:55;;;;;;;24.97;12.00;;;0.60;99.90;;;;;;5052219;28;20497;-53
2022/12/20 09:30:22;;;;;;;15.33;10.33;;;0.70;99.90;;;;;;5052478;28;20445;-53
2022/12/20 09:32:50;;;;;;;15.83;10.13;;;0.90;99.90;;;;;;5051576;28;20503;-53
2022/12/20 09:35:17;;;;;;;15.17;10.50;;;0.90;99.90;;;;;;5051849;28;20556;-55
2022/12/20 09:37:44;;;;;;;21.20;12.50;;;0.90;99.90;;;;;;5051898;28;20525;-54
2022/12/20 09:40:18;;;;;;;11.83;9.70;;;0.90;99.90;;;;;;5051518;28;20543;-53
2022/12/20 09:42:46;;;;;;;22.50;11.63;;;0.90;99.90;;;;;;5051473;28;20451;-53
2022/12/20 09:45:22;;;;;;;32.70;16.20;;;1.00;99.90;;;;;;5051043;28;20441;-55
2022/12/20 09:47:51;;;;;;;25.10;13.43;;;1.10;99.90;;;;;;5051487;28;20574;-53
2022/12/20 09:50:20;;;;;;;33.33;13.20;;;1.10;99.90;;;;;;5051268;28;20457;-54
2022/12/20 09:53:04;;;;;;;16.20;12.23;;;1.10;99.90;;;;;;5043868;28;20479;-53
2022/12/20 09:55:39;;;;;;;20.10;12.80;;;1.20;99.90;;;;;;5031616;28;20501;-53
2022/12/20 09:58:27;;;;;;;23.80;13.87;;;1.20;99.90;;;;;;5031712;28;20566;-53
2022/12/20 10:00:54;;;;;;;28.53;10.50;;;1.00;99.90;;;;;;5030949;28;20505;-54
2022/12/20 10:03:27;;;;;;;35.23;11.93;;;1.00;99.90;;;;;;5029733;28;20442;-54
2022/12/20 10:05:55;;;;;;;12.60;9.40;;;1.00;99.90;;;;;;5029747;28;20857;-53
2022/12/20 10:08:38;;;;;;;11.40;10.00;;;1.20;99.90;;;;;;5029911;28;21084;-53
2022/12/20 10:11:11;;;;;;;22.07;11.77;;;1.30;99.90;;;;;;5030074;28;20446;-53
2022/12/20 10:13:50;;;;;;;19.03;11.00;;;1.50;99.90;;;;;;5029280;28;21002;-53
2022/12/20 10:16:33;;;;;;;28.73;13.37;;;1.50;99.90;;;;;;5030297;28;20529;-53
2022/12/20 10:19:13;;;;;;;23.73;13.10;;;1.30;99.90;;;;;;5030747;28;20468;-53
2022/12/20 10:21:48;;;;;;;26.70;12.87;;;1.30;99.90;;;;;;5031104;28;20533;-53
2022/12/20 10:24:18;;;;;;;50.80;14.77;;;1.50;99.90;;;;;;5031075;28;20502;-53
2022/12/20 10:26:49;;;;;;;42.47;14.50;;;1.20;99.90;;;;;;5031346;28;20516;-53
2022/12/20 10:29:16;;;;;;;42.73;12.73;;;1.10;99.90;;;;;;5031460;28;20835;-54
2022/12/20 10:31:43;;;;;;;38.67;15.93;;;0.90;99.90;;;;;;5031310;28;20470;-55
2022/12/20 10:34:11;;;;;;;52.00;14.80;;;1.10;99.90;;;;;;5030725;28;21011;-56
2022/12/20 10:36:38;;;;;;;20.80;12.00;;;1.30;99.90;;;;;;5031285;28;20529;-55
2022/12/20 10:39:07;;;;;;;29.33;13.07;;;1.40;99.90;;;;;;5031086;28;20478;-55
2022/12/20 10:41:47;;;;;;;28.03;16.23;;;1.50;99.90;;;;;;5030801;28;20551;-57
2022/12/20 10:44:20;;;;;;;18.87;13.47;;;1.50;99.90;;;;;;5031504;28;20446;-55
2022/12/20 10:46:49;;;;;;;38.33;15.47;;;1.50;99.90;;;;;;5031385;28;20525;-56
2022/12/20 10:49:30;;;;;;;39.07;16.27;;;1.40;99.90;;;;;;5030124;28;20462;-53
2022/12/20 10:51:59;;;;;;;29.87;13.20;;;1.30;99.90;;;;;;5030223;28;20446;-53
2022/12/20 10:54:31;;;;;;;22.40;15.50;;;1.40;99.90;;;;;;5029226;28;20506;-54
2022/12/20 10:57:00;;;;;;;23.87;15.50;;;1.70;99.90;;;;;;5029408;28;20474;-53
2022/12/20 10:59:33;;;;;;;23.97;18.37;;;1.70;99.90;;;;;;5029392;28;20458;-53
2022/12/20 11:02:00;;;;;;;26.77;18.63;;;1.70;99.90;;;;;;5029373;28;20434;-53
2022/12/20 11:04:31;;;;;;;26.60;17.00;;;1.70;99.90;;;;;;5029557;28;20470;-53
2022/12/20 11:06:58;;;;;;;21.67;14.20;;;1.70;99.90;;;;;;5030608;28;20447;-53
2022/12/20 11:09:29;;;;;;;31.27;18.70;;;1.70;99.90;;;;;;5030392;28;20915;-54
2022/12/20 11:12:01;;;;;;;24.97;16.87;;;1.70;99.90;;;;;;5042243;28;20518;-53
2022/12/20 11:14:29;;;;;;;23.10;16.13;;;1.80;99.90;;;;;;5047017;28;20553;-54
2022/12/20 11:16:58;;;;;;;24.13;15.17;;;1.80;99.90;;;;;;5050053;28;20481;-55
2022/12/20 11:19:43;;;;;;;22.13;16.50;;;1.80;99.90;;;;;;5053321;28;20466;-53
2022/12/20 11:22:23;;;;;;;22.90;14.83;;;1.90;99.90;;;;;;5053313;28;20532;-53
2022/12/20 11:25:00;;;;;;;20.90;15.33;;;1.90;99.90;;;;;;5053955;28;20951;-55
2022/12/20 11:27:32;;;;;;;20.97;16.00;;;1.90;99.90;;;;;;5053038;28;20540;-53
2022/12/20 11:30:13;;;;;;;21.57;15.40;;;1.90;99.90;;;;;;5053236;28;20520;-52
2022/12/20 11:33:30;;;;;;;20.90;15.43;;;2.00;99.90;;;;;;5052320;28;20503;-53
2022/12/20 11:36:03;;;;;;;24.40;16.00;;;2.00;99.90;;;;;;5011896;28;21087;-54
2022/12/20 11:38:41;;;;;;;19.00;14.97;;;2.00;99.90;;;;;;5052280;28;20480;-53
2022/12/20 11:41:19;;;;;;;31.80;22.03;;;2.00;99.90;;;;;;5053427;28;20520;-54
2022/12/20 11:44:17;;;;;;;59.33;22.43;;;1.90;99.90;;;;;;5053853;28;20536;-52
2022/12/20 11:46:57;;;;;;;44.00;19.63;;;1.60;99.90;;;;;;5038591;28;20477;-53
2022/12/20 11:49:48;;;;;;;21.20;17.37;;;1.50;99.90;;;;;;5053946;28;20531;-53
2022/12/20 11:52:25;;;;;;;29.83;18.50;;;1.60;99.90;;;;;;5053383;28;20865;-52
2022/12/20 11:55:03;;;;;;;30.70;18.07;;;1.70;99.90;;;;;;5053762;28;20477;-52
2022/12/20 11:57:37;;;;;;;59.33;18.50;;;1.70;99.90;;;;;;5054272;28;20464;-52
2022/12/20 12:00:06;;;;;;;74.40;22.23;;;1.30;99.90;;;;;;5054076;28;20445;-52
2022/12/20 12:02:38;;;;;;;34.67;16.83;;;1.30;99.90;;;;;;5053410;28;20455;-55
2022/12/20 12:05:07;;;;;;;42.63;22.57;;;1.20;99.90;;;;;;5053322;28;20452;-52
2022/12/20 12:07:39;;;;;;;26.20;19.00;;;1.20;99.90;;;;;;5053423;28;20520;-52
2022/12/20 12:10:14;;;;;;;22.27;16.47;;;1.30;99.90;;;;;;5053695;28;20521;-52
2022/12/20 12:12:44;;;;;;;19.10;15.90;;;1.50;99.90;;;;;;5053917;28;20441;-53
2022/12/20 12:15:25;;;;;;;34.63;20.50;;;1.60;99.90;;;;;;5052775;28;20506;-53
2022/12/20 12:17:59;;;;;;;33.00;18.40;;;1.60;99.90;;;;;;5052372;28;20537;-55
2022/12/20 12:20:36;;;;;;;40.90;15.97;;;1.50;99.90;;;;;;5052428;28;20441;-53
2022/12/20 12:23:13;;;;;;;25.70;16.67;;;1.40;99.90;;;;;;5052781;28;20519;-54
2022/12/20 12:25:40;;;;;;;21.83;15.93;;;1.30;99.90;;;;;;5053348;28;20481;-54
2022/12/20 12:28:07;;;;;;;19.40;12.13;;;1.50;99.90;;;;;;5052838;28;20504;-55
2022/12/20 12:30:39;;;;;;;13.77;11.40;;;1.70;99.90;;;;;;5052406;28;20533;-53
2022/12/20 12:33:14;;;;;;;24.33;15.30;;;1.80;99.90;;;;;;5052753;28;20545;-54
2022/12/20 12:36:18;;;;;;;23.50;17.60;;;1.70;99.90;;;;;;5053082;28;20554;-55
2022/12/20 12:39:23;;;;;;;22.50;15.07;;;1.70;99.90;;;;;;5048976;28;20560;-54
2022/12/20 12:42:16;;;;;;;20.57;15.73;;;1.70;99.90;;;;;;5053290;28;20452;-54
2022/12/20 12:44:51;;;;;;;28.90;19.50;;;1.70;99.90;;;;;;5051759;28;20524;-54
2022/12/20 12:47:22;;;;;;;26.87;18.07;;;1.80;99.90;;;;;;5052563;28;20527;-54
2022/12/20 12:49:52;;;;;;;29.13;18.50;;;1.70;99.90;;;;;;5052618;28;20545;-53
2022/12/20 12:52:44;;;;;;;28.70;19.10;;;1.70;99.90;;;;;;5052818;28;20931;-53
2022/12/20 12:55:41;;;;;;;21.47;15.03;;;1.80;99.90;;;;;;5052184;28;20491;-52
2022/12/20 12:58:31;;;;;;;16.90;13.90;;;1.90;99.90;;;;;;5044996;28;20874;-53
2022/12/20 13:01:00;;;;;;;19.90;14.47;;;1.80;99.90;;;;;;5052250;28;20887;-52
2022/12/20 13:03:45;;;;;;;16.37;13.00;;;1.90;99.90;;;;;;5052804;28;20478;-55
2022/12/20 13:06:44;;;;;;;20.27;18.03;;;1.90;99.90;;;;;;5052499;28;21024;-53
2022/12/20 13:09:21;;;;;;;22.50;18.57;;;1.80;99.90;;;;;;5052485;28;20469;-56